Diretta Meteo Roma Fiumicino, Italiasabato 20 aprile ore 10:20

Mappa
Sereno 19 °C Sereno 24 Ore: T.min 8 T.max 21
Ponente Est/Nord-Est Km/h 11.1 Punto di rugiada: 7 °C Umidità: 45% Visibilità: 10 Km
Il sole sorge alle: 06:21 Il sole tramonta alle: 19:58
20 Aprile 2019 10:20 tempo osservato: Sereno Sereno 19 45 1025 vento: Nord E/NE 11.1
20 Aprile 2019 09:50 tempo osservato: Sereno Sereno 17 51 1025 vento: Nord E/NE 9.3
20 Aprile 2019 09:20 tempo osservato: Sereno Sereno 16 63 1025 vento: Nord NE 7.4
20 Aprile 2019 08:50 tempo osservato: Sereno Sereno 14 62 1025 vento: Nord NE 7.4
20 Aprile 2019 08:20 tempo osservato: Sereno Sereno 13 71 1025 vento: Nord E/NE 7.4
20 Aprile 2019 07:50 tempo osservato: Sereno Sereno 12 71 1025 vento: Nord N 5.5
20 Aprile 2019 07:20 tempo osservato: Sereno Sereno 9 81 1025 vento: Nord N 3.7
20 Aprile 2019 06:50 tempo osservato: Sereno Sereno 8 87 1025 vento: Nord E 7.4
20 Aprile 2019 05:50 tempo osservato: Sereno Sereno 9 81 1025 vento: Nord N 3.7
20 Aprile 2019 05:20 tempo osservato: Sereno Sereno 9 81 1025 vento: Nord E 7.4
20 Aprile 2019 04:50 tempo osservato: Sereno Sereno 9 81 1025 vento: Nord N 5.5
20 Aprile 2019 04:20 tempo osservato: Sereno Sereno 9 81 1025 vento: Nord E 9.3
20 Aprile 2019 03:50 tempo osservato: Sereno Sereno 9 81 1025 vento: Nord N/NE 7.4
20 Aprile 2019 03:20 tempo osservato: Sereno Sereno 10 81 1025 vento: Nord NE 7.4
20 Aprile 2019 02:50 tempo osservato: Sereno Sereno 10 81 1025 vento: Nord E/NE 9.3
20 Aprile 2019 02:20 tempo osservato: Sereno Sereno 9 81 1025 vento: Nord N/NE 7.4
20 Aprile 2019 01:50 tempo osservato: Sereno Sereno 9 81 1025 vento: Nord N 7.4
20 Aprile 2019 00:50 tempo osservato: Sereno Sereno 10 81 1026 vento: Nord N 5.5
20 Aprile 2019 00:20 tempo osservato: Sereno Sereno 11 81 1026 vento: Nord N 5.5
19 Aprile 2019 23:50 tempo osservato: Sereno Sereno 11 87 1026 vento: Nord N 5.5
19 Aprile 2019 23:20 tempo osservato: Sereno Sereno 11 87 1026 vento: Nord NE 7.4
19 Aprile 2019 22:50 tempo osservato: Sereno Sereno 12 81 1027 vento: Nord N 3.7
19 Aprile 2019 22:20 tempo osservato: Sereno Sereno 13 81 1026 vento: Nord N 5.5
19 Aprile 2019 21:50 tempo osservato: Sereno Sereno 14 76 1027 vento: Nord N 3.7
19 Aprile 2019 21:20 tempo osservato: Sereno Sereno 14 71 1026 vento: Nord N 3.7
19 Aprile 2019 20:50 tempo osservato: Sereno Sereno 15 67 1026 vento: Nord N 1.8
19 Aprile 2019 20:20 tempo osservato: Sereno Sereno 15 67 1026 vento: Nord O/NO 7.4
19 Aprile 2019 19:50 tempo osservato: Sereno Sereno 16 63 1026 vento: Nord O/NO 9.3
19 Aprile 2019 19:20 tempo osservato: Sereno Sereno 17 59 1026 vento: Nord O 9.3
19 Aprile 2019 18:50 tempo osservato: Sereno Sereno 18 51 1026 vento: Nord O 11.1
19 Aprile 2019 18:20 tempo osservato: Sereno Sereno 18 51 1026 vento: Nord O 11.1
19 Aprile 2019 17:50 tempo osservato: Sereno Sereno 18 48 1026 vento: Nord O 13
19 Aprile 2019 17:20 tempo osservato: Sereno Sereno 19 48 1026 vento: Nord O/SO 13
19 Aprile 2019 16:50 tempo osservato: Sereno Sereno 19 45 1026 vento: Nord O/SO 16.7
19 Aprile 2019 16:20 tempo osservato: Sereno Sereno 19 48 1026 vento: Nord O 14.8
19 Aprile 2019 15:50 tempo osservato: Sereno Sereno 19 45 1026 vento: Nord O/SO 16.7
19 Aprile 2019 15:20 tempo osservato: Sereno Sereno 20 45 1026 vento: Nord SO 16.7
19 Aprile 2019 14:50 tempo osservato: Sereno Sereno 20 39 1026 vento: Nord S/SO 18.5
19 Aprile 2019 14:20 tempo osservato: Sereno Sereno 20 34 1026 vento: Nord SO 18.5
19 Aprile 2019 13:50 tempo osservato: Sereno Sereno 20 37 1026 vento: Nord O/SO 14.8
19 Aprile 2019 13:20 tempo osservato: Sereno Sereno 20 37 1026 vento: Nord O 16.7
19 Aprile 2019 12:50 tempo osservato: Sereno Sereno 20 37 1026 vento: Nord O 16.7
19 Aprile 2019 12:20 tempo osservato: Sereno Sereno 20 42 1026 vento: Nord O/SO 16.7
19 Aprile 2019 11:50 tempo osservato: Sereno Sereno 21 43 1027 vento: Nord N 5.5
19 Aprile 2019 11:20 tempo osservato: Sereno Sereno 20 37 1027 vento: Nord N 5.5
19 Aprile 2019 10:50 tempo osservato: Sereno Sereno 20 42 1027 vento: Nord N 5.5